createdAt,value
2023-05-01T00:01:06.893Z,10.07
2023-05-01T00:03:34.471Z,9.13
2023-05-01T00:06:05.297Z,11.65
2023-05-01T00:08:33.139Z,8.68
2023-05-01T00:11:12.444Z,8.55
2023-05-01T00:13:39.980Z,11.57
2023-05-01T00:16:11.358Z,9.75
2023-05-01T00:18:39.323Z,9.07
2023-05-01T00:21:06.817Z,8.65
2023-05-01T00:23:34.156Z,8.27
2023-05-01T00:26:01.704Z,12.02
2023-05-01T00:28:29.218Z,7.13
2023-05-01T00:30:57.302Z,7.40
2023-05-01T00:33:24.738Z,7.75
2023-05-01T00:35:53.352Z,8.75
2023-05-01T00:38:20.890Z,9.68
2023-05-01T00:40:48.458Z,9.60
2023-05-01T00:43:15.946Z,9.98
2023-05-01T00:45:45.531Z,15.85
2023-05-01T00:48:13.328Z,10.57
2023-05-01T00:50:40.925Z,8.07
2023-05-01T00:53:08.359Z,10.38
2023-05-01T00:55:35.961Z,11.07
2023-05-01T00:58:03.865Z,10.27
2023-05-01T01:00:31.262Z,10.00
2023-05-01T01:02:58.824Z,9.30
2023-05-01T01:05:28.423Z,11.82
2023-05-01T01:08:10.793Z,10.25
2023-05-01T01:10:51.982Z,10.23
2023-05-01T01:13:54.306Z,10.25
2023-05-01T01:16:23.805Z,11.65
2023-05-01T01:19:25.906Z,11.15
2023-05-01T01:21:59.892Z,8.40
2023-05-01T01:24:58.742Z,10.40
2023-05-01T01:28:04.077Z,9.40
2023-05-01T01:31:05.363Z,8.45
2023-05-01T01:34:02.585Z,11.50
2023-05-01T01:36:45.348Z,9.98
2023-05-01T01:39:31.377Z,8.93
2023-05-01T01:42:10.967Z,11.25
2023-05-01T01:44:48.849Z,10.98
2023-05-01T01:47:18.619Z,10.10
2023-05-01T01:50:06.744Z,9.02
2023-05-01T01:55:54.736Z,13.05
2023-05-01T01:58:31.675Z,11.43
2023-05-01T02:00:59.905Z,9.32
2023-05-01T02:03:36.115Z,9.35
2023-05-01T02:06:18.679Z,9.77
2023-05-01T02:08:48.018Z,10.38
2023-05-01T02:11:18.156Z,10.02
2023-05-01T02:13:46.511Z,10.40
2023-05-01T02:16:14.610Z,9.45
2023-05-01T02:18:44.910Z,7.97
2023-05-01T02:21:22.231Z,8.90
2023-05-01T02:23:50.460Z,8.82
2023-05-01T02:26:19.193Z,9.40
2023-05-01T02:28:46.821Z,9.77
2023-05-01T02:31:14.334Z,9.02
2023-05-01T02:33:41.875Z,11.48
2023-05-01T02:36:09.407Z,10.35
2023-05-01T02:38:37.188Z,10.40
2023-05-01T02:41:04.800Z,13.48
2023-05-01T02:43:33.896Z,11.55
2023-05-01T02:46:02.597Z,11.48
2023-05-01T02:48:32.987Z,10.20
2023-05-01T02:51:01.645Z,14.68
2023-05-01T02:53:29.062Z,9.27
2023-05-01T02:55:57.759Z,8.27
2023-05-01T02:58:28.589Z,10.18
2023-05-01T03:00:57.161Z,11.23
2023-05-01T03:03:33.221Z,11.65
2023-05-01T03:06:03.161Z,14.93
2023-05-01T03:08:30.639Z,14.68
2023-05-01T03:11:00.610Z,11.63
2023-05-01T03:13:30.274Z,13.75
2023-05-01T03:15:58.118Z,9.88
2023-05-01T03:18:25.799Z,9.43
2023-05-01T03:21:03.668Z,10.90
2023-05-01T03:23:41.974Z,11.68
2023-05-01T03:26:13.043Z,11.70
2023-05-01T03:28:43.219Z,8.88
2023-05-01T03:31:15.442Z,10.23
2023-05-01T03:33:45.340Z,12.82
2023-05-01T03:36:14.339Z,8.52
2023-05-01T03:38:42.220Z,9.98
2023-05-01T03:41:09.945Z,8.50
2023-05-01T03:43:37.473Z,7.88
2023-05-01T03:46:04.931Z,10.68
2023-05-01T03:48:32.414Z,7.65
2023-05-01T03:50:59.831Z,11.65
2023-05-01T03:53:27.240Z,11.32
2023-05-01T03:55:54.612Z,9.00
2023-05-01T03:58:22.350Z,11.40
2023-05-01T04:00:50.872Z,10.35
2023-05-01T04:03:18.815Z,8.30
2023-05-01T04:05:46.547Z,13.27
2023-05-01T04:08:14.096Z,11.55
2023-05-01T04:10:41.564Z,10.90
2023-05-01T04:13:09.090Z,10.65
2023-05-01T04:15:43.310Z,11.82
2023-05-01T04:18:16.520Z,11.43
2023-05-01T04:20:43.989Z,11.18
2023-05-01T04:23:12.776Z,11.73
2023-05-01T04:25:40.182Z,9.30
2023-05-01T04:28:07.753Z,9.80
2023-05-01T04:30:35.493Z,14.68
2023-05-01T04:33:03.985Z,10.02
2023-05-01T04:35:31.500Z,11.45
2023-05-01T04:37:58.885Z,12.73
2023-05-01T04:40:29.604Z,9.27
2023-05-01T04:43:04.436Z,12.80
2023-05-01T04:51:01.070Z,10.75
2023-05-01T04:53:44.723Z,9.48
2023-05-01T04:56:14.714Z,12.30
2023-05-01T04:58:53.136Z,13.80
2023-05-01T05:01:21.155Z,10.00
2023-05-01T05:03:57.625Z,12.35
2023-05-01T05:06:37.709Z,13.48
2023-05-01T05:09:20.550Z,9.88
2023-05-01T05:12:21.321Z,10.52
2023-05-01T05:14:58.405Z,12.75
2023-05-01T05:17:43.014Z,12.55
2023-05-01T05:22:56.175Z,11.60
2023-05-01T05:25:25.510Z,14.60
2023-05-01T05:30:58.838Z,13.20
2023-05-01T05:33:26.249Z,10.77
2023-05-01T05:35:53.849Z,9.63
2023-05-01T05:38:22.730Z,11.00
2023-05-01T05:40:50.153Z,8.30
2023-05-01T05:43:19.981Z,11.38
2023-05-01T05:45:51.818Z,10.85
2023-05-01T05:48:28.564Z,12.70
2023-05-01T05:51:02.600Z,11.98
2023-05-01T05:54:01.174Z,11.40
2023-05-01T05:56:31.561Z,10.73
2023-05-01T05:59:11.528Z,11.88
2023-05-01T06:01:50.206Z,9.63
2023-05-01T06:04:21.734Z,13.77
2023-05-01T06:10:02.926Z,10.73
2023-05-01T06:12:37.483Z,11.35
2023-05-01T06:15:12.280Z,11.85
2023-05-01T06:17:53.551Z,12.85
2023-05-01T06:23:45.861Z,13.38
2023-05-01T06:29:11.457Z,12.75
2023-05-01T06:31:59.916Z,11.25
2023-05-01T06:34:29.944Z,10.15
2023-05-01T06:40:13.335Z,10.05
2023-05-01T06:42:43.685Z,11.48
2023-05-01T06:45:23.338Z,13.07
2023-05-01T06:48:30.689Z,10.85
2023-05-01T06:51:28.638Z,11.63
2023-05-01T06:54:05.004Z,11.25
2023-05-01T06:56:41.205Z,9.90
2023-05-01T06:59:26.821Z,9.13
2023-05-01T07:02:15.487Z,9.90
2023-05-01T07:04:45.490Z,9.80
2023-05-01T07:07:19.120Z,10.27
2023-05-01T07:09:48.268Z,11.95
2023-05-01T07:12:32.652Z,11.48
2023-05-01T07:15:00.236Z,10.32
2023-05-01T07:17:29.055Z,10.43
2023-05-01T07:19:56.747Z,10.60
2023-05-01T07:22:24.367Z,14.77
2023-05-01T07:24:52.136Z,10.27
2023-05-01T07:27:20.544Z,13.32
2023-05-01T07:29:47.912Z,9.90
2023-05-01T07:32:16.021Z,9.90
2023-05-01T07:34:44.682Z,11.65
2023-05-01T07:39:54.577Z,11.57
2023-05-01T07:42:22.152Z,18.70
2023-05-01T07:44:54.132Z,11.73
2023-05-01T07:50:29.721Z,12.70
2023-05-01T07:52:58.525Z,15.13
2023-05-01T07:55:30.448Z,16.05
2023-05-01T07:58:11.254Z,10.00
2023-05-01T08:00:41.218Z,10.90
2023-05-01T08:03:30.109Z,12.10
2023-05-01T08:19:36.546Z,10.13
2023-05-01T08:22:13.931Z,14.57
2023-05-01T08:24:43.574Z,9.10
2023-05-01T08:27:43.550Z,17.33
2023-05-01T08:30:29.030Z,14.13
2023-05-01T08:38:15.608Z,13.30
2023-05-01T08:43:58.798Z,12.80
2023-05-01T08:46:52.988Z,10.73
2023-05-01T08:49:20.935Z,14.90
2023-05-01T08:51:50.024Z,14.55
2023-05-01T08:54:19.548Z,10.63
2023-05-01T08:56:52.662Z,13.77
2023-05-01T08:59:21.090Z,16.58
2023-05-01T09:01:48.692Z,15.90
2023-05-01T09:04:17.515Z,18.85
2023-05-01T09:06:45.426Z,16.33
2023-05-01T09:09:14.552Z,16.33
2023-05-01T09:11:49.304Z,18.83
2023-05-01T09:14:24.026Z,18.08
2023-05-01T09:16:51.820Z,18.30
2023-05-01T09:19:19.739Z,17.95
2023-05-01T09:21:48.657Z,15.32
2023-05-01T09:24:22.541Z,15.70
2023-05-01T09:26:56.692Z,18.15
2023-05-01T09:29:48.140Z,15.65
2023-05-01T09:32:24.821Z,16.20
2023-05-01T09:35:17.186Z,14.43
2023-05-01T09:40:59.996Z,16.67
2023-05-01T09:43:36.873Z,15.45
2023-05-01T09:49:08.791Z,17.35
2023-05-01T09:51:37.055Z,16.70
2023-05-01T09:54:06.688Z,21.55
2023-05-01T09:56:34.729Z,16.88
2023-05-01T09:59:20.464Z,21.95
2023-05-01T10:01:52.935Z,17.00
2023-05-01T10:04:31.250Z,19.38
2023-05-01T10:07:20.705Z,19.20
2023-05-01T10:09:49.422Z,16.75
2023-05-01T10:12:25.289Z,17.20
2023-05-01T10:14:54.064Z,13.63
2023-05-01T10:17:22.539Z,16.23
2023-05-01T10:19:53.471Z,13.77
2023-05-01T10:22:22.548Z,13.25
2023-05-01T10:24:50.013Z,14.20
2023-05-01T10:27:20.778Z,13.02
2023-05-01T10:29:50.133Z,15.38
2023-05-01T10:32:19.579Z,14.95
2023-05-01T10:35:07.443Z,14.40
2023-05-01T10:38:15.883Z,16.30
2023-05-01T10:40:57.950Z,13.55
2023-05-01T10:43:32.084Z,14.10
2023-05-01T10:46:08.831Z,15.27
2023-05-01T10:48:42.553Z,12.50
2023-05-01T10:51:13.261Z,14.45
2023-05-01T10:53:46.908Z,11.93
2023-05-01T10:56:32.814Z,11.88
2023-05-01T10:59:04.662Z,15.68
2023-05-01T11:01:38.173Z,15.48
2023-05-01T11:04:10.626Z,16.95
2023-05-01T11:06:38.445Z,14.02
2023-05-01T11:09:46.997Z,11.82
2023-05-01T11:12:35.619Z,13.48
2023-05-01T11:15:08.430Z,15.48
2023-05-01T11:17:45.067Z,15.15
2023-05-01T11:20:14.485Z,16.60
2023-05-01T11:22:50.366Z,15.40
2023-05-01T11:25:22.441Z,15.50
2023-05-01T11:28:03.781Z,14.23
2023-05-01T11:30:40.391Z,12.40
2023-05-01T11:33:10.734Z,14.25
2023-05-01T11:35:38.708Z,15.90
2023-05-01T11:38:06.414Z,17.42
2023-05-01T11:40:35.753Z,19.38
2023-05-01T11:43:07.652Z,15.73
2023-05-01T11:45:38.509Z,17.37
2023-05-01T11:48:09.965Z,17.05
2023-05-01T11:50:38.919Z,15.85
2023-05-01T11:53:12.926Z,17.45
2023-05-01T11:55:40.520Z,17.50
2023-05-01T11:58:09.018Z,16.42
2023-05-01T12:00:41.832Z,15.80
2023-05-01T12:05:42.819Z,18.13
2023-05-01T12:08:23.448Z,16.83
2023-05-01T12:10:53.580Z,17.60
2023-05-01T12:13:21.452Z,15.35
2023-05-01T12:15:53.730Z,18.73
2023-05-01T12:18:21.643Z,16.38
2023-05-01T12:20:54.342Z,17.58
2023-05-01T12:23:37.477Z,16.10
2023-05-01T12:26:17.696Z,12.75
2023-05-01T12:28:58.492Z,14.13
2023-05-01T12:31:26.857Z,13.48
2023-05-01T12:34:07.611Z,13.05
2023-05-01T12:36:36.246Z,13.85
2023-05-01T12:39:09.139Z,14.52
2023-05-01T12:41:41.646Z,13.70
2023-05-01T12:44:23.143Z,16.08
2023-05-01T12:47:08.060Z,12.82
2023-05-01T12:49:37.208Z,10.82
2023-05-01T12:52:07.491Z,12.55
2023-05-01T12:54:39.972Z,10.55
2023-05-01T12:57:15.128Z,11.48
2023-05-01T12:59:45.417Z,10.93
2023-05-01T13:02:17.710Z,13.20
2023-05-01T13:04:46.403Z,9.55
2023-05-01T13:07:18.711Z,9.55
2023-05-01T13:10:02.641Z,10.35
2023-05-01T13:12:31.183Z,8.35
2023-05-01T13:14:59.491Z,8.50
2023-05-01T13:17:33.757Z,7.20
2023-05-01T13:20:04.067Z,8.45
2023-05-01T13:22:38.765Z,9.52
2023-05-01T13:25:25.137Z,7.43
2023-05-01T13:27:53.359Z,7.57
2023-05-01T13:30:31.404Z,9.35
2023-05-01T13:32:58.780Z,8.77
2023-05-01T13:35:28.660Z,7.65
2023-05-01T13:37:56.016Z,10.30
2023-05-01T13:40:26.263Z,9.85
2023-05-01T13:42:56.664Z,7.55
2023-05-01T13:45:24.424Z,8.75
2023-05-01T13:47:52.141Z,10.57
2023-05-01T13:50:19.728Z,9.38
2023-05-01T13:52:47.607Z,11.38
2023-05-01T13:55:15.764Z,8.75
2023-05-01T13:57:43.473Z,9.38
2023-05-01T14:00:19.362Z,9.43
2023-05-01T14:02:53.485Z,9.10
2023-05-01T14:05:28.518Z,11.00
2023-05-01T14:07:58.414Z,13.20
2023-05-01T14:10:28.195Z,8.98
2023-05-01T14:12:59.763Z,9.50
2023-05-01T14:15:28.853Z,10.25
2023-05-01T14:17:56.492Z,8.90
2023-05-01T14:20:26.541Z,10.57
2023-05-01T14:22:53.845Z,11.05
2023-05-01T14:25:34.135Z,9.90
2023-05-01T14:28:05.143Z,11.00
2023-05-01T14:30:34.631Z,9.73
2023-05-01T14:33:03.671Z,9.32
2023-05-01T14:35:31.260Z,8.70
2023-05-01T14:38:12.848Z,10.98
2023-05-01T14:40:44.608Z,11.02
2023-05-01T14:43:15.045Z,11.48
2023-05-01T14:45:43.637Z,10.82
2023-05-01T14:48:23.151Z,9.25
2023-05-01T14:50:51.154Z,8.32
2023-05-01T14:53:21.340Z,10.32
2023-05-01T14:55:51.577Z,12.55
2023-05-01T14:58:18.880Z,8.88
2023-05-01T15:00:46.480Z,9.02
2023-05-01T15:03:14.184Z,9.82
2023-05-01T15:05:41.994Z,9.98
2023-05-01T15:08:10.126Z,11.23
2023-05-01T15:10:38.739Z,9.07
2023-05-01T15:13:06.716Z,12.05
2023-05-01T15:15:34.199Z,9.27
2023-05-01T15:18:04.151Z,9.75
2023-05-01T15:20:32.019Z,12.65
2023-05-01T15:22:59.379Z,9.45
2023-05-01T15:25:26.892Z,9.07
2023-05-01T15:27:54.644Z,10.65
2023-05-01T15:30:22.137Z,11.57
2023-05-01T15:32:49.707Z,10.85
2023-05-01T15:35:17.829Z,10.77
2023-05-01T15:37:45.210Z,13.18
2023-05-01T15:40:12.881Z,13.20
2023-05-01T15:42:40.534Z,11.18
2023-05-01T15:45:08.522Z,15.25
2023-05-01T15:47:35.929Z,12.77
2023-05-01T15:50:03.778Z,12.05
2023-05-01T15:52:31.265Z,12.18
2023-05-01T15:54:59.088Z,13.70
2023-05-01T15:57:26.476Z,12.38
2023-05-01T15:59:56.014Z,13.23
2023-05-01T16:02:25.946Z,11.75
2023-05-01T16:04:54.156Z,12.15
2023-05-01T16:07:22.478Z,12.93
2023-05-01T16:09:52.890Z,15.55
2023-05-01T16:12:20.488Z,13.65
2023-05-01T16:14:49.088Z,13.00
2023-05-01T16:17:18.139Z,12.90
2023-05-01T16:19:45.779Z,12.65
2023-05-01T16:22:15.408Z,13.52
2023-05-01T16:24:42.985Z,15.55
2023-05-01T16:27:13.632Z,14.70
2023-05-01T16:29:41.014Z,13.82
2023-05-01T16:32:11.475Z,14.82
2023-05-01T16:34:40.387Z,16.55
2023-05-01T16:37:08.030Z,15.27
2023-05-01T16:39:38.638Z,13.85
2023-05-01T16:42:06.329Z,14.27
2023-05-01T16:44:36.744Z,13.82
2023-05-01T16:47:05.177Z,14.85
2023-05-01T16:49:32.634Z,15.75
2023-05-01T16:52:04.255Z,18.40
2023-05-01T16:54:36.248Z,15.73
2023-05-01T16:57:05.311Z,18.33
2023-05-01T16:59:32.832Z,16.98
2023-05-01T17:02:02.785Z,17.52
2023-05-01T17:04:30.380Z,16.40
2023-05-01T17:07:01.020Z,20.55
2023-05-01T17:09:32.371Z,21.10
2023-05-01T17:12:02.331Z,19.38
2023-05-01T17:14:34.601Z,19.25
2023-05-01T17:17:02.444Z,19.35
2023-05-01T17:19:30.288Z,17.70
2023-05-01T17:22:09.709Z,19.45
2023-05-01T17:24:39.661Z,19.95
2023-05-01T17:27:08.862Z,21.58
2023-05-01T17:29:36.405Z,19.13
2023-05-01T17:32:04.659Z,19.58
2023-05-01T17:34:34.932Z,21.77
2023-05-01T17:37:02.250Z,23.02
2023-05-01T17:39:33.672Z,20.92
2023-05-01T17:42:04.571Z,19.15
2023-05-01T17:44:33.177Z,20.55
2023-05-01T17:47:01.160Z,23.20
2023-05-01T17:49:34.784Z,20.50
2023-05-01T17:52:02.664Z,25.65
2023-05-01T17:54:30.029Z,24.00
2023-05-01T17:56:58.248Z,25.45
2023-05-01T17:59:26.480Z,27.17
2023-05-01T18:01:53.879Z,28.63
2023-05-01T18:04:21.460Z,28.02
2023-05-01T18:06:48.930Z,27.52
2023-05-01T18:09:16.471Z,27.50
2023-05-01T18:11:44.060Z,27.10
2023-05-01T18:14:13.011Z,28.42
2023-05-01T18:16:40.417Z,34.05
2023-05-01T18:19:10.588Z,36.13
2023-05-01T18:21:38.046Z,33.53
2023-05-01T18:24:09.649Z,32.28
2023-05-01T18:26:45.458Z,33.60
2023-05-01T18:29:17.007Z,35.33
2023-05-01T18:31:53.369Z,37.03
2023-05-01T18:34:23.235Z,37.15
2023-05-01T18:36:55.934Z,36.28
2023-05-01T18:39:36.845Z,41.97
2023-05-01T18:42:29.069Z,37.75
2023-05-01T18:45:19.514Z,38.42
2023-05-01T18:47:48.219Z,37.33
2023-05-01T18:50:22.075Z,39.75
2023-05-01T18:52:51.504Z,38.70
2023-05-01T18:55:19.008Z,41.63
2023-05-01T18:57:49.221Z,43.13
2023-05-01T19:00:17.721Z,41.13
2023-05-01T19:02:51.466Z,42.35
2023-05-01T19:05:19.837Z,38.72
2023-05-01T19:07:50.599Z,37.60
2023-05-01T19:10:18.679Z,35.40
2023-05-01T19:12:46.681Z,32.67
2023-05-01T19:15:14.782Z,32.42
2023-05-01T19:17:49.743Z,32.13
2023-05-01T19:20:26.786Z,35.22
2023-05-01T19:23:07.541Z,36.28
2023-05-01T19:25:56.299Z,37.47
2023-05-01T19:28:28.936Z,42.08
2023-05-01T19:37:09.847Z,42.53
2023-05-01T19:39:43.534Z,43.45
2023-05-01T19:42:20.534Z,43.85
2023-05-01T19:47:30.719Z,46.67
2023-05-01T19:50:00.910Z,46.60
2023-05-01T19:52:31.051Z,48.92
2023-05-01T19:55:27.641Z,51.28
2023-05-01T19:58:00.694Z,48.45
2023-05-01T20:00:29.744Z,46.40
2023-05-01T20:05:42.783Z,49.97
2023-05-01T20:11:14.096Z,48.70
2023-05-01T20:13:55.663Z,52.15
2023-05-01T20:16:52.027Z,46.92
2023-05-01T20:19:30.329Z,44.55
2023-05-01T20:24:54.378Z,48.53
2023-05-01T20:27:29.692Z,50.53
2023-05-01T20:33:39.575Z,48.55
2023-05-01T20:36:08.198Z,52.88
2023-05-01T20:38:46.403Z,52.67
2023-05-01T20:41:14.422Z,53.22
2023-05-01T20:43:41.840Z,48.17
2023-05-01T20:46:09.370Z,53.10
2023-05-01T20:48:36.797Z,48.55
2023-05-01T20:51:04.201Z,47.92
2023-05-01T20:53:31.912Z,48.30
2023-05-01T20:56:00.097Z,45.38
2023-05-01T20:58:32.821Z,47.70
2023-05-01T21:01:02.803Z,43.58
2023-05-01T21:03:39.447Z,42.67
2023-05-01T21:06:07.705Z,42.72
2023-05-01T21:08:38.526Z,41.28
2023-05-01T21:11:10.831Z,38.03
2023-05-01T21:13:48.092Z,40.67
2023-05-01T21:16:25.841Z,37.70
2023-05-01T21:22:09.166Z,42.97
2023-05-01T21:24:46.232Z,41.30
2023-05-01T21:27:21.333Z,48.75
2023-05-01T21:30:29.434Z,44.10
2023-05-01T21:33:00.516Z,37.40
2023-05-01T21:36:02.034Z,33.78
2023-05-01T21:41:35.689Z,30.10
2023-05-01T21:44:09.857Z,32.03
2023-05-01T21:46:43.780Z,36.03
2023-05-01T21:49:18.693Z,37.03
2023-05-01T21:51:47.365Z,35.53
2023-05-01T21:54:33.045Z,37.55
2023-05-01T21:57:06.104Z,36.05
2023-05-01T21:59:57.278Z,38.38
2023-05-01T22:05:26.298Z,38.78
2023-05-01T22:08:06.963Z,40.45
2023-05-01T22:10:51.373Z,33.97
2023-05-01T22:24:09.522Z,39.08
2023-05-01T22:26:37.612Z,36.05
2023-05-01T22:29:08.006Z,37.30
2023-05-01T22:31:35.861Z,35.50
2023-05-01T22:34:03.336Z,36.70
2023-05-01T22:36:31.546Z,38.83
2023-05-01T22:38:58.972Z,35.28
2023-05-01T22:41:26.763Z,36.63
2023-05-01T22:43:54.195Z,33.08
2023-05-01T22:46:21.615Z,36.78
2023-05-01T22:48:48.977Z,35.60
2023-05-01T22:51:16.386Z,35.35
2023-05-01T22:53:43.874Z,33.88
2023-05-01T22:56:12.945Z,32.00
2023-05-01T22:58:45.050Z,30.23
2023-05-01T23:01:39.228Z,34.63
2023-05-01T23:07:26.721Z,31.25
2023-05-01T23:09:57.234Z,34.63
2023-05-01T23:12:28.109Z,32.67
2023-05-01T23:17:58.882Z,37.03
2023-05-01T23:20:40.062Z,31.92
2023-05-01T23:23:21.914Z,39.47
2023-05-01T23:25:51.780Z,38.05
2023-05-01T23:31:15.287Z,36.55
2023-05-01T23:37:14.448Z,40.55
2023-05-01T23:39:48.736Z,37.25
2023-05-01T23:42:21.461Z,37.55
2023-05-01T23:44:55.186Z,36.05
2023-05-01T23:47:34.664Z,32.97
2023-05-01T23:52:58.026Z,32.63
2023-05-01T23:55:28.177Z,24.88
